Time;durP1;ratioP1;P1;durP2;ratioP2;P2;SDS_P1;SDS_P2;PMS_P1;PMS_P2;Temp;Humidity;BMP_temperature;BMP_pressure;BME280_temperature;BME280_humidity;BME280_pressure;Samples;Min_cycle;Max_cycle;Signal;HPM_P1;HPM_P2
2023/03/17 00:00:55;;;;;;;;;;;20.10;38.90;;;;;;1513915;78;675;-61
2023/03/17 00:02:58;;;;;;;;;;;20.10;38.90;;;;;;1534320;77;1132;-63
2023/03/17 00:05:00;;;;;;;;;;;20.10;38.90;;;;;;1543818;77;671;-61
2023/03/17 00:07:02;;;;;;;;;;;20.10;38.90;;;;;;1544691;77;686;-61
2023/03/17 00:09:04;;;;;;;;;;;20.10;38.90;;;;;;1541095;77;698;-61
2023/03/17 00:11:06;;;;;;;;;;;20.10;38.80;;;;;;1547084;77;726;-61
2023/03/17 00:13:09;;;;;;;;;;;20.10;38.90;;;;;;1529642;77;1151;-60
2023/03/17 00:15:13;;;;;;;;;;;20.10;38.80;;;;;;1543478;77;1355;-60
2023/03/17 00:17:15;;;;;;;;;;;20.10;38.90;;;;;;1533415;77;1931;-60
2023/03/17 00:19:18;;;;;;;;;;;20.10;38.80;;;;;;1542801;77;681;-61
2023/03/17 00:21:22;;;;;;;;;;;20.10;38.90;;;;;;1530779;77;738;-64
2023/03/17 00:23:24;;;;;;;;;;;20.10;38.90;;;;;;1540063;77;1169;-60
2023/03/17 00:25:27;;;;;;;;;;;20.10;38.90;;;;;;1540473;77;812;-60
2023/03/17 00:27:29;;;;;;;;;;;20.10;38.90;;;;;;1540541;77;740;-61
2023/03/17 00:29:30;;;;;;;;;;;20.10;38.90;;;;;;1536626;77;1583;-60
2023/03/17 00:31:33;;;;;;;;;;;20.10;38.90;;;;;;1539409;77;1165;-60
2023/03/17 00:33:36;;;;;;;;;;;20.10;38.80;;;;;;1528017;77;854;-61
2023/03/17 00:35:39;;;;;;;;;;;20.10;38.80;;;;;;1546105;77;782;-60
2023/03/17 00:37:41;;;;;;;;;;;20.10;38.80;;;;;;1541030;77;1923;-60
2023/03/17 00:39:43;;;;;;;;;;;20.10;38.80;;;;;;1533214;77;798;-60
2023/03/17 00:41:44;;;;;;;;;;;20.10;38.80;;;;;;1540443;77;1168;-61
2023/03/17 00:43:46;;;;;;;;;;;20.10;38.80;;;;;;1535371;77;1384;-59
2023/03/17 00:45:49;;;;;;;;;;;20.10;38.80;;;;;;1546287;77;693;-60
2023/03/17 00:47:52;;;;;;;;;;;20.00;38.60;;;;;;1545960;77;783;-60
2023/03/17 00:49:54;;;;;;;;;;;20.00;38.60;;;;;;1532817;77;727;-60
2023/03/17 00:51:55;;;;;;;;;;;20.00;38.60;;;;;;1538456;77;1160;-62
2023/03/17 00:53:57;;;;;;;;;;;20.00;38.60;;;;;;1536743;77;771;-60
2023/03/17 00:55:59;;;;;;;;;;;20.00;38.60;;;;;;1542206;77;701;-60
2023/03/17 00:58:01;;;;;;;;;;;20.00;38.60;;;;;;1533884;77;1941;-60
2023/03/17 01:00:03;;;;;;;;;;;20.00;38.60;;;;;;1536932;77;832;-60
2023/03/17 01:02:05;;;;;;;;;;;20.10;38.70;;;;;;1526947;77;1191;-61
2023/03/17 01:04:09;;;;;;;;;;;20.00;38.60;;;;;;1535766;77;933;-62
2023/03/17 01:06:12;;;;;;;;;;;20.00;38.60;;;;;;1530885;77;745;-63
2023/03/17 01:08:14;;;;;;;;;;;20.00;38.60;;;;;;1547793;77;750;-60
2023/03/17 01:10:17;;;;;;;;;;;20.00;38.60;;;;;;1535122;77;760;-61
2023/03/17 01:12:19;;;;;;;;;;;20.00;38.60;;;;;;1544582;75;1336;-63
2023/03/17 01:14:21;;;;;;;;;;;20.00;38.60;;;;;;1542708;77;681;-60
2023/03/17 01:16:23;;;;;;;;;;;20.00;38.60;;;;;;1538798;77;664;-60
2023/03/17 01:18:25;;;;;;;;;;;20.00;38.60;;;;;;1545003;77;1927;-60
2023/03/17 01:20:28;;;;;;;;;;;20.00;38.60;;;;;;1547554;77;748;-61
2023/03/17 01:22:30;;;;;;;;;;;20.00;38.60;;;;;;1541203;77;1115;-61
2023/03/17 01:24:32;;;;;;;;;;;20.00;38.50;;;;;;1537557;77;727;-61
2023/03/17 01:26:34;;;;;;;;;;;19.90;38.50;;;;;;1529340;77;1487;-60
2023/03/17 01:28:36;;;;;;;;;;;19.90;38.50;;;;;;1531605;77;723;-60
2023/03/17 01:30:38;;;;;;;;;;;20.00;38.50;;;;;;1532390;77;649;-60
2023/03/17 01:32:40;;;;;;;;;;;20.00;38.50;;;;;;1546889;77;1116;-61
2023/03/17 01:34:42;;;;;;;;;;;20.00;38.50;;;;;;1544346;77;677;-62
2023/03/17 01:36:44;;;;;;;;;;;19.90;38.40;;;;;;1548079;77;798;-60
2023/03/17 01:38:47;;;;;;;;;;;20.00;38.50;;;;;;1539750;77;1931;-60
2023/03/17 01:40:49;;;;;;;;;;;20.00;38.50;;;;;;1540284;77;1460;-60
2023/03/17 01:42:56;;;;;;;;;;;20.00;38.40;;;;;;1544943;77;1158;-60
2023/03/17 01:44:59;;;;;;;;;;;20.00;38.50;;;;;;1538749;77;1950;-61
2023/03/17 01:47:01;;;;;;;;;;;19.90;38.40;;;;;;1533402;77;789;-60
2023/03/17 01:49:08;;;;;;;;;;;19.90;38.50;;;;;;1528171;77;1062;-60
2023/03/17 01:51:11;;;;;;;;;;;20.00;38.50;;;;;;1547327;77;670;-61
2023/03/17 01:53:13;;;;;;;;;;;20.00;38.40;;;;;;1537991;77;1103;-61
2023/03/17 01:55:15;;;;;;;;;;;19.90;38.40;;;;;;1529695;77;1453;-61
2023/03/17 01:57:20;;;;;;;;;;;19.90;38.10;;;;;;1540358;77;769;-61
2023/03/17 01:59:26;;;;;;;;;;;19.90;38.40;;;;;;1544572;77;1897;-62
2023/03/17 02:01:29;;;;;;;;;;;19.90;38.40;;;;;;1532733;77;753;-62
2023/03/17 02:03:32;;;;;;;;;;;20.00;38.40;;;;;;1532495;77;805;-60
2023/03/17 02:05:33;;;;;;;;;;;19.90;38.40;;;;;;1529221;77;705;-61
2023/03/17 02:07:36;;;;;;;;;;;19.90;38.40;;;;;;1545503;77;1608;-61
2023/03/17 02:09:38;;;;;;;;;;;19.90;38.30;;;;;;1541390;77;758;-60
2023/03/17 02:11:41;;;;;;;;;;;19.90;38.40;;;;;;1544648;77;1128;-60
2023/03/17 02:13:43;;;;;;;;;;;19.90;38.40;;;;;;1543539;75;675;-61
2023/03/17 02:15:47;;;;;;;;;;;20.00;38.40;;;;;;1543222;77;752;-60
2023/03/17 02:17:49;;;;;;;;;;;19.90;38.40;;;;;;1544230;77;1901;-60
2023/03/17 02:19:51;;;;;;;;;;;19.90;38.40;;;;;;1548213;77;590;-61
2023/03/17 02:21:53;;;;;;;;;;;19.90;38.40;;;;;;1545316;77;1394;-60
2023/03/17 02:23:56;;;;;;;;;;;19.90;38.40;;;;;;1540666;77;714;-60
2023/03/17 02:25:57;;;;;;;;;;;20.10;38.60;;;;;;1524218;77;693;-61
2023/03/17 02:28:01;;;;;;;;;;;19.90;38.40;;;;;;1526357;77;706;-60
2023/03/17 02:30:03;;;;;;;;;;;19.90;38.40;;;;;;1537470;77;728;-60
2023/03/17 02:32:05;;;;;;;;;;;19.90;38.30;;;;;;1514894;78;1155;-61
2023/03/17 02:34:07;;;;;;;;;;;19.90;38.40;;;;;;1536786;77;845;-62
2023/03/17 02:36:09;;;;;;;;;;;19.90;38.40;;;;;;1539366;77;1450;-60
2023/03/17 02:38:11;;;;;;;;;;;19.90;38.30;;;;;;1530796;77;1904;-60
2023/03/17 02:40:13;;;;;;;;;;;19.80;38.30;;;;;;1536544;77;717;-59
2023/03/17 02:42:15;;;;;;;;;;;19.80;38.30;;;;;;1539302;77;1122;-60
2023/03/17 02:44:17;;;;;;;;;;;19.90;38.40;;;;;;1545326;77;653;-60
2023/03/17 02:46:19;;;;;;;;;;;19.90;38.40;;;;;;1532307;77;711;-60
2023/03/17 02:48:22;;;;;;;;;;;19.90;38.40;;;;;;1535022;77;793;-61
2023/03/17 02:50:26;;;;;;;;;;;19.90;38.30;;;;;;1538809;77;1343;-60
2023/03/17 02:52:28;;;;;;;;;;;19.80;38.30;;;;;;1538037;77;1170;-60
2023/03/17 02:54:30;;;;;;;;;;;19.90;38.40;;;;;;1525462;77;787;-61
2023/03/17 02:56:32;;;;;;;;;;;19.90;38.40;;;;;;1531723;77;836;-60
2023/03/17 02:58:34;;;;;;;;;;;19.80;38.30;;;;;;1536616;77;1929;-59
2023/03/17 03:00:37;;;;;;;;;;;19.80;38.30;;;;;;1537263;77;813;-60
2023/03/17 03:02:39;;;;;;;;;;;19.80;38.30;;;;;;1535797;77;1193;-59
2023/03/17 03:04:41;;;;;;;;;;;19.90;38.40;;;;;;1538351;77;1497;-60
2023/03/17 03:06:43;;;;;;;;;;;19.90;38.40;;;;;;1533238;77;733;-60
2023/03/17 03:08:45;;;;;;;;;;;19.90;38.40;;;;;;1542758;77;819;-60
2023/03/17 03:10:47;;;;;;;;;;;19.80;38.40;;;;;;1541178;77;813;-61
2023/03/17 03:12:49;;;;;;;;;;;19.80;38.40;;;;;;1537990;77;1164;-61
2023/03/17 03:14:51;;;;;;;;;;;19.90;38.40;;;;;;1531150;77;630;-61
2023/03/17 03:16:53;;;;;;;;;;;19.80;38.40;;;;;;1529841;77;732;-61
2023/03/17 03:18:55;;;;;;;;;;;19.90;38.40;;;;;;1537868;77;1920;-61
2023/03/17 03:20:57;;;;;;;;;;;19.80;38.40;;;;;;1539324;77;705;-60
2023/03/17 03:22:59;;;;;;;;;;;19.80;38.40;;;;;;1534255;77;1153;-60
2023/03/17 03:25:01;;;;;;;;;;;19.80;38.40;;;;;;1545654;77;664;-60
2023/03/17 03:27:03;;;;;;;;;;;19.80;38.40;;;;;;1535177;77;669;-60
2023/03/17 03:29:05;;;;;;;;;;;19.90;38.40;;;;;;1541204;77;682;-60
2023/03/17 03:31:06;;;;;;;;;;;19.80;38.40;;;;;;1535180;77;642;-60
2023/03/17 03:33:09;;;;;;;;;;;19.80;38.50;;;;;;1533815;77;1572;-62
2023/03/17 03:35:10;;;;;;;;;;;19.80;38.40;;;;;;1538074;77;836;-60
2023/03/17 03:37:12;;;;;;;;;;;19.90;38.60;;;;;;1538376;77;596;-61
2023/03/17 03:39:14;;;;;;;;;;;19.80;38.40;;;;;;1527277;77;1935;-60
2023/03/17 03:41:16;;;;;;;;;;;19.80;38.50;;;;;;1545180;77;833;-60
2023/03/17 03:43:18;;;;;;;;;;;19.80;38.50;;;;;;1545653;77;1137;-60
2023/03/17 03:45:20;;;;;;;;;;;19.90;38.60;;;;;;1544665;77;721;-60
2023/03/17 03:47:22;;;;;;;;;;;19.80;38.40;;;;;;1540084;77;1616;-61
2023/03/17 03:49:24;;;;;;;;;;;19.80;38.50;;;;;;1533878;77;819;-61
2023/03/17 03:51:26;;;;;;;;;;;19.80;38.50;;;;;;1542921;77;633;-61
2023/03/17 03:53:28;;;;;;;;;;;19.80;38.50;;;;;;1540869;77;1119;-61
2023/03/17 03:55:30;;;;;;;;;;;19.80;38.50;;;;;;1530971;77;810;-61
2023/03/17 03:57:31;;;;;;;;;;;19.80;38.50;;;;;;1546779;77;602;-60
2023/03/17 03:59:33;;;;;;;;;;;19.80;38.50;;;;;;1540580;77;1962;-61
2023/03/17 04:01:35;;;;;;;;;;;19.80;38.50;;;;;;1540911;77;1491;-61
2023/03/17 04:03:37;;;;;;;;;;;19.80;38.50;;;;;;1535201;77;715;-63
2023/03/17 04:05:39;;;;;;;;;;;19.80;38.50;;;;;;1542928;77;662;-61
2023/03/17 04:07:42;;;;;;;;;;;19.80;38.50;;;;;;1519550;78;743;-60
2023/03/17 04:09:44;;;;;;;;;;;19.70;38.60;;;;;;1528658;77;738;-60
2023/03/17 04:11:46;;;;;;;;;;;19.90;38.60;;;;;;1528683;77;1142;-61
2023/03/17 04:13:48;;;;;;;;;;;19.80;38.60;;;;;;1519607;77;713;-62
2023/03/17 04:15:50;;;;;;;;;;;19.70;38.60;;;;;;1518929;77;1541;-60
2023/03/17 04:17:53;;;;;;;;;;;19.70;38.60;;;;;;1530899;77;687;-62
2023/03/17 04:19:56;;;;;;;;;;;19.80;38.60;;;;;;1530716;77;1918;-60
2023/03/17 04:21:57;;;;;;;;;;;19.70;38.60;;;;;;1526168;77;1158;-60
2023/03/17 04:24:00;;;;;;;;;;;19.70;38.60;;;;;;1526231;77;568;-61
2023/03/17 04:26:02;;;;;;;;;;;19.80;38.60;;;;;;1527787;77;775;-61
2023/03/17 04:28:05;;;;;;;;;;;19.80;38.60;;;;;;1525041;77;679;-61
2023/03/17 04:30:07;;;;;;;;;;;19.70;38.60;;;;;;1528887;77;1444;-62
2023/03/17 04:32:12;;;;;;;;;;;19.70;38.50;;;;;;1520258;77;1147;-59
2023/03/17 04:34:15;;;;;;;;;;;19.80;38.60;;;;;;1524698;77;1338;-60
2023/03/17 04:36:18;;;;;;;;;;;19.80;38.60;;;;;;1528391;77;713;-60
2023/03/17 04:38:20;;;;;;;;;;;19.80;38.60;;;;;;1524230;77;690;-60
2023/03/17 04:40:22;;;;;;;;;;;19.70;38.60;;;;;;1512765;77;1903;-61
2023/03/17 04:42:24;;;;;;;;;;;19.70;38.60;;;;;;1521841;77;1553;-60
2023/03/17 04:44:26;;;;;;;;;;;19.70;38.60;;;;;;1521106;77;771;-61
2023/03/17 04:46:27;;;;;;;;;;;19.80;38.60;;;;;;1515559;77;680;-60
2023/03/17 04:48:30;;;;;;;;;;;19.80;38.40;;;;;;1517608;77;974;-60
2023/03/17 04:50:32;;;;;;;;;;;19.70;38.60;;;;;;1528927;77;819;-60
2023/03/17 04:52:34;;;;;;;;;;;19.70;38.60;;;;;;1510573;77;1191;-62
2023/03/17 04:54:36;;;;;;;;;;;19.80;38.60;;;;;;1516751;77;743;-59
2023/03/17 04:56:38;;;;;;;;;;;19.70;38.60;;;;;;1522714;77;1566;-59
2023/03/17 04:58:40;;;;;;;;;;;19.70;38.60;;;;;;1520865;77;674;-61
2023/03/17 05:00:42;;;;;;;;;;;19.70;38.60;;;;;;1512496;77;1944;-61
2023/03/17 05:02:44;;;;;;;;;;;19.70;38.60;;;;;;1513293;77;1186;-60
2023/03/17 05:04:46;;;;;;;;;;;19.70;38.60;;;;;;1528621;77;735;-62
2023/03/17 05:06:48;;;;;;;;;;;19.90;38.70;;;;;;1517385;77;578;-62
2023/03/17 05:08:50;;;;;;;;;;;19.70;38.60;;;;;;1520271;77;784;-61
2023/03/17 05:10:52;;;;;;;;;;;19.80;38.60;;;;;;1526161;77;1354;-61
2023/03/17 05:12:54;;;;;;;;;;;19.70;38.60;;;;;;1510702;77;1246;-60
2023/03/17 05:14:56;;;;;;;;;;;19.70;38.60;;;;;;1529923;77;718;-61
2023/03/17 05:16:57;;;;;;;;;;;19.70;38.50;;;;;;1522818;77;681;-60
2023/03/17 05:18:59;;;;;;;;;;;19.70;38.40;;;;;;1522624;77;1937;-60
2023/03/17 05:21:01;;;;;;;;;;;19.70;38.60;;;;;;1530454;77;698;-63
2023/03/17 05:23:03;;;;;;;;;;;19.70;38.60;;;;;;1518085;77;1154;-61
2023/03/17 05:25:05;;;;;;;;;;;19.70;38.60;;;;;;1530205;77;1510;-60
2023/03/17 05:27:07;;;;;;;;;;;19.70;38.70;;;;;;1518255;77;696;-60
2023/03/17 05:29:09;;;;;;;;;;;19.70;38.70;;;;;;1516790;77;711;-60
2023/03/17 05:31:11;;;;;;;;;;;19.70;38.70;;;;;;1515886;77;695;-60
2023/03/17 05:33:13;;;;;;;;;;;19.70;38.70;;;;;;1529472;77;1100;-61
2023/03/17 05:35:16;;;;;;;;;;;19.70;38.80;;;;;;1524239;77;931;-60
2023/03/17 05:37:18;;;;;;;;;;;19.70;38.80;;;;;;1521545;77;798;-62
2023/03/17 05:39:19;;;;;;;;;;;19.70;38.80;;;;;;1523737;77;1936;-60
2023/03/17 05:41:21;;;;;;;;;;;19.70;38.90;;;;;;1529190;77;794;-62
2023/03/17 05:43:23;;;;;;;;;;;19.70;38.90;;;;;;1514816;77;1127;-60
2023/03/17 05:45:25;;;;;;;;;;;19.80;38.90;;;;;;1524133;77;763;-61
2023/03/17 05:47:27;;;;;;;;;;;19.70;38.90;;;;;;1519153;77;673;-61
2023/03/17 05:49:29;;;;;;;;;;;19.70;38.90;;;;;;1520214;77;655;-61
2023/03/17 05:51:31;;;;;;;;;;;19.80;38.80;;;;;;1522241;77;1176;-60
2023/03/17 05:53:35;;;;;;;;;;;19.80;38.80;;;;;;1522725;77;1438;-60
2023/03/17 05:55:36;;;;;;;;;;;19.80;38.70;;;;;;1524476;77;719;-59
2023/03/17 05:57:38;;;;;;;;;;;19.80;38.70;;;;;;1529759;77;709;-61
2023/03/17 05:59:41;;;;;;;;;;;19.70;38.60;;;;;;1520415;77;1919;-61
2023/03/17 06:01:43;;;;;;;;;;;19.60;38.50;;;;;;1515249;77;1163;-60
2023/03/17 06:03:45;;;;;;;;;;;19.60;38.60;;;;;;1524545;77;828;-60
2023/03/17 06:05:47;;;;;;;;;;;19.70;38.70;;;;;;1525784;77;781;-60
2023/03/17 06:07:49;;;;;;;;;;;19.60;38.40;;;;;;1516564;77;1410;-60
2023/03/17 06:09:51;;;;;;;;;;;19.60;38.40;;;;;;1507963;77;748;-64
2023/03/17 06:11:53;;;;;;;;;;;19.60;38.60;;;;;;1527060;77;1206;-60
2023/03/17 06:13:55;;;;;;;;;;;19.70;38.90;;;;;;1530311;77;727;-61
2023/03/17 06:15:57;;;;;;;;;;;19.70;38.80;;;;;;1528981;77;800;-60
2023/03/17 06:17:59;;;;;;;;;;;19.80;38.70;;;;;;1525878;77;798;-61
2023/03/17 06:20:02;;;;;;;;;;;19.90;38.60;;;;;;1525268;77;1919;-60
2023/03/17 06:22:04;;;;;;;;;;;19.90;38.60;;;;;;1515333;77;1350;-61
2023/03/17 06:24:06;;;;;;;;;;;19.90;38.50;;;;;;1525515;77;787;-62
2023/03/17 06:26:08;;;;;;;;;;;19.90;38.50;;;;;;1524131;77;806;-59
2023/03/17 06:28:10;;;;;;;;;;;19.90;38.50;;;;;;1527385;77;795;-61
2023/03/17 06:30:12;;;;;;;;;;;20.00;38.50;;;;;;1516774;77;766;-61
2023/03/17 06:32:14;;;;;;;;;;;19.90;38.40;;;;;;1521268;77;1140;-59
2023/03/17 06:34:17;;;;;;;;;;;19.90;38.40;;;;;;1529379;77;751;-60
2023/03/17 06:36:19;;;;;;;;;;;20.00;38.40;;;;;;1523977;77;1571;-60
2023/03/17 06:38:21;;;;;;;;;;;20.00;38.40;;;;;;1527666;77;726;-61
2023/03/17 06:40:23;;;;;;;;;;;20.00;38.40;;;;;;1526734;77;1924;-60
2023/03/17 06:42:25;;;;;;;;;;;20.00;38.40;;;;;;1523700;77;1136;-59
2023/03/17 06:44:27;;;;;;;;;;;19.90;38.40;;;;;;1503925;78;788;-60
2023/03/17 06:46:29;;;;;;;;;;;19.90;38.30;;;;;;1540152;77;679;-60
2023/03/17 06:48:31;;;;;;;;;;;20.00;38.30;;;;;;1531968;77;709;-60
2023/03/17 06:50:33;;;;;;;;;;;20.00;38.20;;;;;;1546845;77;1477;-61
2023/03/17 06:52:35;;;;;;;;;;;20.00;38.30;;;;;;1543222;77;1145;-61
2023/03/17 06:54:37;;;;;;;;;;;20.00;38.30;;;;;;1524177;77;809;-60
2023/03/17 06:56:39;;;;;;;;;;;20.00;38.20;;;;;;1535309;77;736;-61
2023/03/17 06:58:41;;;;;;;;;;;20.00;38.30;;;;;;1535949;77;707;-61
2023/03/17 07:00:44;;;;;;;;;;;20.00;38.30;;;;;;1533854;77;1929;-60
2023/03/17 07:02:46;;;;;;;;;;;20.10;38.30;;;;;;1544832;77;1152;-62
2023/03/17 07:04:48;;;;;;;;;;;19.90;38.20;;;;;;1539241;77;1413;-61
2023/03/17 07:06:50;;;;;;;;;;;20.10;38.40;;;;;;1540734;77;613;-61
2023/03/17 07:08:52;;;;;;;;;;;20.00;38.10;;;;;;1541514;77;634;-61
2023/03/17 07:10:59;;;;;;;;;;;20.00;38.20;;;;;;1542182;77;742;-61
2023/03/17 07:12:58;;;;;;;;;;;20.10;38.30;;;;;;1540231;77;1709;-61
2023/03/17 07:15:00;;;;;;;;;;;20.00;38.10;;;;;;1546577;77;713;-61
2023/03/17 07:17:03;;;;;;;;;;;20.10;38.30;;;;;;1543030;77;1473;-61
2023/03/17 07:19:06;;;;;;;;;;;20.00;38.10;;;;;;1539410;77;777;-62
2023/03/17 07:21:08;;;;;;;;;;;20.00;38.10;;;;;;1541049;77;1894;-61
2023/03/17 07:23:11;;;;;;;;;;;20.00;38.10;;;;;;1538565;77;1130;-61
2023/03/17 07:25:14;;;;;;;;;;;20.10;38.20;;;;;;1542874;77;805;-60
2023/03/17 07:27:16;;;;;;;;;;;20.10;38.30;;;;;;1535832;77;754;-61
2023/03/17 07:29:18;;;;;;;;;;;20.00;38.10;;;;;;1532030;77;733;-61
2023/03/17 07:31:20;;;;;;;;;;;20.00;38.10;;;;;;1546193;77;1591;-60
2023/03/17 07:33:21;;;;;;;;;;;20.10;38.30;;;;;;1541672;77;1108;-60
2023/03/17 07:35:23;;;;;;;;;;;20.00;38.10;;;;;;1541839;77;757;-61
2023/03/17 07:37:25;;;;;;;;;;;20.10;38.30;;;;;;1527635;77;794;-61
2023/03/17 07:39:27;;;;;;;;;;;20.10;38.40;;;;;;1544295;77;634;-60
2023/03/17 07:41:29;;;;;;;;;;;20.10;38.40;;;;;;1532282;77;1927;-61
2023/03/17 07:43:32;;;;;;;;;;;20.10;38.30;;;;;;1530694;77;733;-64
2023/03/17 07:45:34;;;;;;;;;;;20.20;38.40;;;;;;1539918;77;1498;-63
2023/03/17 07:47:36;;;;;;;;;;;20.30;38.50;;;;;;1527000;77;676;-60
2023/03/17 07:49:38;;;;;;;;;;;20.30;38.50;;;;;;1530476;77;656;-61
2023/03/17 07:51:42;;;;;;;;;;;20.40;38.50;;;;;;1545099;77;1158;-60
2023/03/17 07:53:45;;;;;;;;;;;20.40;38.40;;;;;;1537493;77;692;-60
2023/03/17 07:55:47;;;;;;;;;;;20.50;38.30;;;;;;1538756;77;729;-61
2023/03/17 07:57:48;;;;;;;;;;;20.50;38.30;;;;;;1540007;77;690;-60
2023/03/17 07:59:50;;;;;;;;;;;20.60;38.30;;;;;;1543795;77;1923;-59
2023/03/17 08:01:52;;;;;;;;;;;20.70;38.30;;;;;;1533305;77;1154;-61
2023/03/17 08:03:55;;;;;;;;;;;20.70;38.20;;;;;;1547979;77;843;-60
2023/03/17 08:05:58;;;;;;;;;;;20.70;38.10;;;;;;1547882;77;744;-64
2023/03/17 08:08:00;;;;;;;;;;;20.80;38.00;;;;;;1539097;77;805;-60
2023/03/17 08:10:02;;;;;;;;;;;20.80;37.90;;;;;;1541172;77;663;-61
2023/03/17 08:12:04;;;;;;;;;;;20.90;37.90;;;;;;1548018;77;1185;-59
2023/03/17 08:14:06;;;;;;;;;;;20.90;37.80;;;;;;1541195;77;1539;-60
2023/03/17 08:16:07;;;;;;;;;;;20.90;37.60;;;;;;1532811;77;806;-62
2023/03/17 08:18:09;;;;;;;;;;;21.00;37.60;;;;;;1536574;77;582;-60
2023/03/17 08:20:11;;;;;;;;;;;21.00;37.50;;;;;;1548088;77;1924;-62
2023/03/17 08:22:13;;;;;;;;;;;21.00;37.60;;;;;;1541107;77;1149;-60
2023/03/17 08:24:15;;;;;;;;;;;21.00;37.40;;;;;;1534582;77;739;-60
2023/03/17 08:26:17;;;;;;;;;;;21.00;37.30;;;;;;1545085;77;748;-60
2023/03/17 08:28:19;;;;;;;;;;;21.10;37.20;;;;;;1544160;77;1597;-60
2023/03/17 08:30:22;;;;;;;;;;;21.10;37.10;;;;;;1530736;77;679;-60
2023/03/17 08:32:24;;;;;;;;;;;21.20;36.90;;;;;;1538457;77;1165;-61
2023/03/17 08:34:26;;;;;;;;;;;21.10;37.00;;;;;;1542119;77;775;-62
2023/03/17 08:36:28;;;;;;;;;;;21.20;36.90;;;;;;1545684;77;738;-60
2023/03/17 08:38:30;;;;;;;;;;;21.20;36.80;;;;;;1539535;77;796;-65
2023/03/17 08:40:32;;;;;;;;;;;21.30;36.90;;;;;;1543730;77;1917;-60
2023/03/17 08:42:34;;;;;;;;;;;21.30;36.80;;;;;;1537557;77;1602;-61
2023/03/17 08:44:36;;;;;;;;;;;21.30;36.80;;;;;;1540810;77;767;-61
2023/03/17 08:46:39;;;;;;;;;;;21.30;36.60;;;;;;1535680;77;660;-60
2023/03/17 08:48:41;;;;;;;;;;;21.30;36.60;;;;;;1541540;77;862;-61
2023/03/17 08:50:44;;;;;;;;;;;21.30;36.60;;;;;;1533189;77;739;-60
2023/03/17 08:52:47;;;;;;;;;;;21.30;36.50;;;;;;1539471;77;1169;-60
2023/03/17 08:54:49;;;;;;;;;;;21.30;36.40;;;;;;1535123;77;635;-61
2023/03/17 08:56:51;;;;;;;;;;;21.30;36.40;;;;;;1529477;77;1534;-62
2023/03/17 08:58:53;;;;;;;;;;;21.30;36.30;;;;;;1526879;77;745;-61
2023/03/17 09:00:56;;;;;;;;;;;21.30;36.40;;;;;;1533197;77;1937;-61
2023/03/17 09:02:58;;;;;;;;;;;21.30;36.40;;;;;;1543543;77;1159;-61
2023/03/17 09:05:01;;;;;;;;;;;21.30;36.40;;;;;;1540359;77;658;-60
2023/03/17 09:07:04;;;;;;;;;;;21.30;36.40;;;;;;1539427;77;690;-60
2023/03/17 09:09:06;;;;;;;;;;;21.30;36.30;;;;;;1539559;77;712;-60
2023/03/17 09:11:09;;;;;;;;;;;21.30;36.30;;;;;;1533441;77;2481;-61
2023/03/17 09:13:11;;;;;;;;;;;21.30;36.30;;;;;;1547684;77;1150;-61
2023/03/17 09:15:13;;;;;;;;;;;21.30;36.30;;;;;;1540238;77;742;-61
2023/03/17 09:17:15;;;;;;;;;;;21.30;36.30;;;;;;1546941;77;708;-61
2023/03/17 09:19:17;;;;;;;;;;;21.30;36.30;;;;;;1546051;77;707;-60
2023/03/17 09:21:18;;;;;;;;;;;21.30;36.30;;;;;;1541119;77;1939;-61
2023/03/17 09:23:22;;;;;;;;;;;21.30;36.30;;;;;;1535672;77;1106;-59
2023/03/17 09:25:24;;;;;;;;;;;21.30;36.30;;;;;;1545055;77;1435;-63
2023/03/17 09:27:26;;;;;;;;;;;21.30;36.30;;;;;;1548186;77;752;-60
2023/03/17 09:29:28;;;;;;;;;;;21.30;36.30;;;;;;1543235;77;762;-59
2023/03/17 09:31:30;;;;;;;;;;;21.30;36.30;;;;;;1547103;77;1144;-60
2023/03/17 09:33:32;;;;;;;;;;;21.30;36.30;;;;;;1543961;77;698;-60
2023/03/17 09:35:34;;;;;;;;;;;21.40;36.30;;;;;;1542139;77;755;-60
2023/03/17 09:37:36;;;;;;;;;;;21.40;36.30;;;;;;1540399;77;1551;-61
2023/03/17 09:39:38;;;;;;;;;;;21.30;36.30;;;;;;1542886;77;687;-60
2023/03/17 09:41:50;;;;;;;;;;;21.30;36.30;;;;;;1543288;77;1921;-61
2023/03/17 09:43:54;;;;;;;;;;;21.30;36.30;;;;;;1536728;77;763;-60
2023/03/17 09:45:56;;;;;;;;;;;21.20;36.20;;;;;;1547477;77;2115;-60
2023/03/17 09:47:59;;;;;;;;;;;21.30;36.30;;;;;;1541808;77;773;-60
2023/03/17 09:50:02;;;;;;;;;;;21.20;36.30;;;;;;1546411;77;1569;-60
2023/03/17 09:52:04;;;;;;;;;;;21.30;36.40;;;;;;1540931;77;1389;-60
2023/03/17 09:54:14;;;;;;;;;;;21.20;36.30;;;;;;1540823;77;738;-60
2023/03/17 09:56:16;;;;;;;;;;;21.20;36.30;;;;;;1532049;77;666;-61
2023/03/17 09:58:20;;;;;;;;;;;21.20;36.30;;;;;;1544200;77;817;-59
2023/03/17 10:00:26;;;;;;;;;;;21.20;36.30;;;;;;1537892;77;826;-60
2023/03/17 10:02:33;;;;;;;;;;;21.20;36.30;;;;;;1536136;77;1918;-60
2023/03/17 10:04:35;;;;;;;;;;;21.10;36.30;;;;;;1540123;77;648;-60
2023/03/17 10:06:39;;;;;;;;;;;21.20;36.30;;;;;;1542016;77;1603;-59
2023/03/17 10:08:43;;;;;;;;;;;21.20;36.30;;;;;;1528416;77;1070;-59
2023/03/17 10:10:56;;;;;;;;;;;21.10;36.40;;;;;;1538593;77;1841;-60
2023/03/17 10:13:00;;;;;;;;;;;21.20;36.50;;;;;;1530937;77;1150;-60
2023/03/17 10:15:03;;;;;;;;;;;21.20;36.40;;;;;;1533143;77;1703;-60
2023/03/17 10:17:18;;;;;;;;;;;21.20;36.40;;;;;;1544746;77;727;-60
2023/03/17 10:19:25;;;;;;;;;;;21.10;36.40;;;;;;1532751;77;736;-60
2023/03/17 10:21:34;;;;;;;;;;;21.10;36.40;;;;;;1534191;77;1927;-60
2023/03/17 10:23:36;;;;;;;;;;;21.10;36.50;;;;;;1541106;77;794;-60
2023/03/17 10:25:39;;;;;;;;;;;21.20;36.50;;;;;;1538786;77;719;-60
2023/03/17 10:27:41;;;;;;;;;;;21.20;36.50;;;;;;1541630;77;712;-60
2023/03/17 10:29:43;;;;;;;;;;;21.10;36.50;;;;;;1546289;77;735;-61
2023/03/17 10:31:45;;;;;;;;;;;21.10;36.50;;;;;;1537333;77;1151;-60
2023/03/17 10:33:48;;;;;;;;;;;21.10;36.40;;;;;;1543589;77;787;-60
2023/03/17 10:35:50;;;;;;;;;;;21.10;36.50;;;;;;1538068;77;707;-60
2023/03/17 10:37:52;;;;;;;;;;;21.10;36.50;;;;;;1544020;77;896;-59
2023/03/17 10:39:54;;;;;;;;;;;21.10;36.50;;;;;;1538102;77;684;-60
2023/03/17 10:41:57;;;;;;;;;;;21.10;36.50;;;;;;1551683;75;1927;-59
2023/03/17 10:43:59;;;;;;;;;;;21.10;36.50;;;;;;1509874;77;634;-61
2023/03/17 10:46:02;;;;;;;;;;;21.10;36.50;;;;;;1511390;77;717;-63
2023/03/17 10:48:06;;;;;;;;;;;21.10;36.50;;;;;;1487870;77;1334;-59
2023/03/17 10:50:12;;;;;;;;;;;21.00;36.50;;;;;;1500938;77;600;-60
2023/03/17 10:52:22;;;;;;;;;;;21.10;36.50;;;;;;1512935;77;1147;-60
2023/03/17 10:54:25;;;;;;;;;;;21.00;36.50;;;;;;1522568;77;823;-60
2023/03/17 10:56:29;;;;;;;;;;;21.10;36.60;;;;;;1535351;77;735;-61
2023/03/17 10:58:32;;;;;;;;;;;21.00;36.50;;;;;;1530162;77;1700;-59
2023/03/17 11:00:35;;;;;;;;;;;21.10;36.70;;;;;;1543686;77;2158;-60
2023/03/17 11:02:38;;;;;;;;;;;21.00;36.60;;;;;;1531645;77;1930;-60
2023/03/17 11:04:43;;;;;;;;;;;21.00;36.60;;;;;;1537614;77;1871;-60
2023/03/17 11:06:46;;;;;;;;;;;21.00;36.70;;;;;;1532904;77;609;-61
2023/03/17 11:08:48;;;;;;;;;;;21.00;36.70;;;;;;1507558;77;1301;-61
2023/03/17 11:10:52;;;;;;;;;;;21.00;36.70;;;;;;1535446;77;894;-60
2023/03/17 11:12:56;;;;;;;;;;;21.00;36.70;;;;;;1533394;77;1656;-59
2023/03/17 11:15:02;;;;;;;;;;;21.00;36.70;;;;;;1543840;77;698;-63
2023/03/17 11:17:06;;;;;;;;;;;21.00;36.80;;;;;;1543338;77;1585;-60
2023/03/17 11:19:10;;;;;;;;;;;21.00;36.80;;;;;;1542512;77;1995;-60
2023/03/17 11:21:13;;;;;;;;;;;21.00;36.80;;;;;;1543992;77;1937;-60
2023/03/17 11:23:21;;;;;;;;;;;21.00;36.80;;;;;;1537488;77;1880;-60
2023/03/17 11:25:23;;;;;;;;;;;21.00;36.80;;;;;;1547335;77;708;-60
2023/03/17 11:27:27;;;;;;;;;;;21.00;36.90;;;;;;1539202;77;764;-60
2023/03/17 11:29:46;;;;;;;;;;;20.90;36.90;;;;;;1536420;77;707;-60
2023/03/17 11:32:06;;;;;;;;;;;20.90;36.90;;;;;;1540574;77;2025;-61
2023/03/17 11:34:08;;;;;;;;;;;20.90;36.90;;;;;;1526968;77;673;-62
2023/03/17 11:36:28;;;;;;;;;;;20.90;37.00;;;;;;1530682;77;662;-60
2023/03/17 11:38:32;;;;;;;;;;;21.00;37.00;;;;;;1537065;77;812;-59
2023/03/17 11:40:44;;;;;;;;;;;20.90;37.00;;;;;;1542083;77;1519;-60
2023/03/17 11:43:04;;;;;;;;;;;20.90;37.10;;;;;;1547457;77;1939;-60
2023/03/17 11:45:25;;;;;;;;;;;20.90;37.20;;;;;;1543752;77;1214;-60
2023/03/17 11:47:30;;;;;;;;;;;20.90;37.10;;;;;;1536485;77;729;-60
2023/03/17 11:49:38;;;;;;;;;;;20.90;37.10;;;;;;1539878;77;585;-59
2023/03/17 11:51:44;;;;;;;;;;;20.80;37.10;;;;;;1535203;77;1149;-61
2023/03/17 11:53:48;;;;;;;;;;;20.90;37.20;;;;;;1531752;77;981;-60
2023/03/17 11:55:51;;;;;;;;;;;20.90;37.20;;;;;;1542234;77;1940;-61
2023/03/17 11:57:55;;;;;;;;;;;20.90;37.20;;;;;;1534448;77;794;-60
2023/03/17 12:00:04;;;;;;;;;;;20.80;37.10;;;;;;1538625;77;2605;-60
2023/03/17 12:02:10;;;;;;;;;;;20.90;37.20;;;;;;1523674;77;1933;-59
2023/03/17 12:04:33;;;;;;;;;;;20.90;37.20;;;;;;1534830;77;679;-59
2023/03/17 12:06:36;;;;;;;;;;;20.80;37.10;;;;;;1535921;77;928;-60
2023/03/17 12:08:44;;;;;;;;;;;20.90;37.20;;;;;;1530261;77;749;-59
2023/03/17 12:10:46;;;;;;;;;;;20.80;37.10;;;;;;1524618;77;1011;-61
2023/03/17 12:12:49;;;;;;;;;;;20.80;37.20;;;;;;1541578;77;1616;-60